sensor_id;sensor_type;location;lat;lon;timestamp;pressure;altitude;pressure_sealevel;temperature;humidity
59073;BME280;44859;51.934;15.554;2023-03-15T00:00:56;98818.98;;;0.12;96.86
59073;BME280;44859;51.934;15.554;2023-03-15T00:03:32;98821.95;;;0.10;96.48
59073;BME280;44859;51.934;15.554;2023-03-15T00:06:12;98823.44;;;0.06;96.34
59073;BME280;44859;51.934;15.554;2023-03-15T00:08:53;98825.56;;;0.03;96.18
59073;BME280;44859;51.934;15.554;2023-03-15T00:11:29;98828.21;;;0.00;96.27
59073;BME280;44859;51.934;15.554;2023-03-15T00:17:33;98842.05;;;-0.09;96.39
59073;BME280;44859;51.934;15.554;2023-03-15T00:20:17;98848.09;;;-0.10;96.00
59073;BME280;44859;51.934;15.554;2023-03-15T00:22:48;98854.30;;;-0.09;96.33
59073;BME280;44859;51.934;15.554;2023-03-15T00:25:23;98857.38;;;-0.08;95.95
59073;BME280;44859;51.934;15.554;2023-03-15T00:28:26;98862.97;;;-0.11;96.02
59073;BME280;44859;51.934;15.554;2023-03-15T00:31:03;98867.16;;;-0.13;95.85
59073;BME280;44859;51.934;15.554;2023-03-15T00:33:41;98874.59;;;-0.13;95.95
59073;BME280;44859;51.934;15.554;2023-03-15T00:36:21;98881.14;;;-0.14;95.92
59073;BME280;44859;51.934;15.554;2023-03-15T00:39:26;98883.11;;;-0.17;95.61
59073;BME280;44859;51.934;15.554;2023-03-15T00:42:08;98888.16;;;-0.20;95.69
59073;BME280;44859;51.934;15.554;2023-03-15T00:44:37;98896.66;;;-0.22;95.81
59073;BME280;44859;51.934;15.554;2023-03-15T00:47:11;98898.94;;;-0.23;95.70
59073;BME280;44859;51.934;15.554;2023-03-15T00:50:00;98901.00;;;-0.24;95.49
59073;BME280;44859;51.934;15.554;2023-03-15T00:55:27;98904.54;;;-0.28;95.50
59073;BME280;44859;51.934;15.554;2023-03-15T00:58:11;98908.55;;;-0.30;95.35
59073;BME280;44859;51.934;15.554;2023-03-15T01:00:59;98913.04;;;-0.30;95.12
59073;BME280;44859;51.934;15.554;2023-03-15T01:03:41;98913.44;;;-0.33;95.03
59073;BME280;44859;51.934;15.554;2023-03-15T01:06:23;98917.78;;;-0.36;95.20
59073;BME280;44859;51.934;15.554;2023-03-15T01:09:08;98923.71;;;-0.39;94.84
59073;BME280;44859;51.934;15.554;2023-03-15T01:12:12;98921.66;;;-0.40;94.90
59073;BME280;44859;51.934;15.554;2023-03-15T01:14:48;98926.84;;;-0.40;94.78
59073;BME280;44859;51.934;15.554;2023-03-15T01:17:25;98928.91;;;-0.41;94.74
59073;BME280;44859;51.934;15.554;2023-03-15T01:25:54;98940.89;;;-0.44;94.57
59073;BME280;44859;51.934;15.554;2023-03-15T01:28:54;98950.55;;;-0.44;94.58
59073;BME280;44859;51.934;15.554;2023-03-15T01:31:49;98959.23;;;-0.47;94.56
59073;BME280;44859;51.934;15.554;2023-03-15T01:34:33;98964.60;;;-0.49;94.22
59073;BME280;44859;51.934;15.554;2023-03-15T01:37:06;98962.91;;;-0.51;94.38
59073;BME280;44859;51.934;15.554;2023-03-15T01:39:47;98960.89;;;-0.53;94.51
59073;BME280;44859;51.934;15.554;2023-03-15T01:42:27;98967.66;;;-0.56;94.28
59073;BME280;44859;51.934;15.554;2023-03-15T01:48:51;98967.33;;;-0.57;94.21
59073;BME280;44859;51.934;15.554;2023-03-15T01:51:55;98965.76;;;-0.56;94.01
59073;BME280;44859;51.934;15.554;2023-03-15T01:55:08;98967.00;;;-0.58;94.03
59073;BME280;44859;51.934;15.554;2023-03-15T01:58:28;98974.27;;;-0.59;93.93
59073;BME280;44859;51.934;15.554;2023-03-15T02:01:08;98972.91;;;-0.60;93.77
59073;BME280;44859;51.934;15.554;2023-03-15T02:03:58;98975.16;;;-0.61;93.96
59073;BME280;44859;51.934;15.554;2023-03-15T02:06:35;98978.30;;;-0.64;93.81
59073;BME280;44859;51.934;15.554;2023-03-15T02:10:09;98983.01;;;-0.66;93.68
59073;BME280;44859;51.934;15.554;2023-03-15T02:12:54;98984.42;;;-0.68;93.77
59073;BME280;44859;51.934;15.554;2023-03-15T02:15:34;98991.63;;;-0.67;93.88
59073;BME280;44859;51.934;15.554;2023-03-15T02:18:19;98997.16;;;-0.68;93.50
59073;BME280;44859;51.934;15.554;2023-03-15T02:27:47;99008.95;;;-0.72;93.50
59073;BME280;44859;51.934;15.554;2023-03-15T02:30:27;99012.95;;;-0.74;93.49
59073;BME280;44859;51.934;15.554;2023-03-15T02:33:25;99019.85;;;-0.74;93.62
59073;BME280;44859;51.934;15.554;2023-03-15T02:36:29;99022.10;;;-0.75;93.53
59073;BME280;44859;51.934;15.554;2023-03-15T02:39:22;99022.63;;;-0.77;93.33
59073;BME280;44859;51.934;15.554;2023-03-15T02:42:01;99030.04;;;-0.75;93.65
59073;BME280;44859;51.934;15.554;2023-03-15T02:44:48;99031.26;;;-0.76;93.25
59073;BME280;44859;51.934;15.554;2023-03-15T02:47:28;99034.90;;;-0.77;93.55
59073;BME280;44859;51.934;15.554;2023-03-15T02:50:01;99039.56;;;-0.77;93.32
59073;BME280;44859;51.934;15.554;2023-03-15T02:52:56;99051.29;;;-0.78;93.36
59073;BME280;44859;51.934;15.554;2023-03-15T02:56:22;99052.52;;;-0.80;93.23
59073;BME280;44859;51.934;15.554;2023-03-15T02:58:34;99058.23;;;-0.81;93.14
59073;BME280;44859;51.934;15.554;2023-03-15T03:01:32;99058.77;;;-0.83;93.32
59073;BME280;44859;51.934;15.554;2023-03-15T03:04:19;99054.84;;;-0.85;93.14
59073;BME280;44859;51.934;15.554;2023-03-15T03:06:50;99056.23;;;-0.86;93.13
59073;BME280;44859;51.934;15.554;2023-03-15T03:09:24;99059.17;;;-0.87;93.03
59073;BME280;44859;51.934;15.554;2023-03-15T03:12:02;99053.33;;;-0.88;93.23
59073;BME280;44859;51.934;15.554;2023-03-15T03:14:39;99061.59;;;-0.87;93.02
59073;BME280;44859;51.934;15.554;2023-03-15T03:17:21;99064.85;;;-0.86;92.83
59073;BME280;44859;51.934;15.554;2023-03-15T03:20:21;99064.88;;;-0.88;93.01
59073;BME280;44859;51.934;15.554;2023-03-15T03:23:25;99067.98;;;-0.88;92.72
59073;BME280;44859;51.934;15.554;2023-03-15T03:26:28;99072.65;;;-0.89;92.58
59073;BME280;44859;51.934;15.554;2023-03-15T03:29:03;99070.98;;;-0.92;92.77
59073;BME280;44859;51.934;15.554;2023-03-15T03:31:51;99078.36;;;-0.92;92.63
59073;BME280;44859;51.934;15.554;2023-03-15T03:34:37;99082.17;;;-0.92;92.42
59073;BME280;44859;51.934;15.554;2023-03-15T03:37:11;99087.02;;;-0.94;92.40
59073;BME280;44859;51.934;15.554;2023-03-15T03:39:57;99089.27;;;-0.95;92.40
59073;BME280;44859;51.934;15.554;2023-03-15T03:42:32;99095.81;;;-0.93;92.37
59073;BME280;44859;51.934;15.554;2023-03-15T03:45:07;99102.51;;;-0.92;92.38
59073;BME280;44859;51.934;15.554;2023-03-15T03:47:57;99107.17;;;-0.93;92.36
59073;BME280;44859;51.934;15.554;2023-03-15T03:50:32;99113.88;;;-0.92;91.98
59073;BME280;44859;51.934;15.554;2023-03-15T03:53:23;99118.02;;;-0.93;92.15
59073;BME280;44859;51.934;15.554;2023-03-15T03:56:14;99126.48;;;-0.93;91.94
59073;BME280;44859;51.934;15.554;2023-03-15T03:58:55;99127.85;;;-0.93;91.82
59073;BME280;44859;51.934;15.554;2023-03-15T04:01:32;99133.89;;;-0.93;91.58
59073;BME280;44859;51.934;15.554;2023-03-15T04:05:04;99134.44;;;-0.94;91.88
59073;BME280;44859;51.934;15.554;2023-03-15T04:07:52;99139.77;;;-0.95;91.66
59073;BME280;44859;51.934;15.554;2023-03-15T04:10:27;99142.38;;;-0.96;91.39
59073;BME280;44859;51.934;15.554;2023-03-15T04:12:56;99147.36;;;-0.95;91.63
59073;BME280;44859;51.934;15.554;2023-03-15T04:15:45;99149.11;;;-0.96;91.49
59073;BME280;44859;51.934;15.554;2023-03-15T04:18:25;99157.91;;;-0.97;91.41
59073;BME280;44859;51.934;15.554;2023-03-15T04:21:04;99159.83;;;-0.99;91.20
59073;BME280;44859;51.934;15.554;2023-03-15T04:23:43;99164.30;;;-0.99;91.33
59073;BME280;44859;51.934;15.554;2023-03-15T04:26:17;99164.49;;;-1.00;91.28
59073;BME280;44859;51.934;15.554;2023-03-15T04:28:49;99167.27;;;-1.01;91.52
59073;BME280;44859;51.934;15.554;2023-03-15T04:31:26;99168.80;;;-1.00;91.53
59073;BME280;44859;51.934;15.554;2023-03-15T04:33:57;99170.66;;;-0.98;91.12
59073;BME280;44859;51.934;15.554;2023-03-15T04:36:36;99173.27;;;-0.98;91.25
59073;BME280;44859;51.934;15.554;2023-03-15T04:42:30;99183.09;;;-0.99;90.83
59073;BME280;44859;51.934;15.554;2023-03-15T04:45:06;99182.59;;;-0.99;90.98
59073;BME280;44859;51.934;15.554;2023-03-15T04:47:36;99181.55;;;-1.00;90.85
59073;BME280;44859;51.934;15.554;2023-03-15T04:50:11;99188.23;;;-0.97;90.86
59073;BME280;44859;51.934;15.554;2023-03-15T04:52:47;99190.66;;;-0.98;90.74
59073;BME280;44859;51.934;15.554;2023-03-15T04:55:18;99194.30;;;-0.99;90.63
59073;BME280;44859;51.934;15.554;2023-03-15T04:57:53;99197.91;;;-0.99;90.79
59073;BME280;44859;51.934;15.554;2023-03-15T05:00:28;99200.67;;;-1.00;90.73
59073;BME280;44859;51.934;15.554;2023-03-15T05:02:56;99204.66;;;-1.02;90.50
59073;BME280;44859;51.934;15.554;2023-03-15T05:05:32;99206.74;;;-1.02;90.85
59073;BME280;44859;51.934;15.554;2023-03-15T05:08:01;99211.71;;;-1.01;90.38
59073;BME280;44859;51.934;15.554;2023-03-15T05:10:38;99216.04;;;-1.01;90.54
59073;BME280;44859;51.934;15.554;2023-03-15T05:13:10;99223.84;;;-1.05;90.53
59073;BME280;44859;51.934;15.554;2023-03-15T05:15:38;99227.45;;;-1.04;90.49
59073;BME280;44859;51.934;15.554;2023-03-15T05:18:07;99232.78;;;-1.03;90.55
59073;BME280;44859;51.934;15.554;2023-03-15T05:20:44;99235.34;;;-1.01;90.42
59073;BME280;44859;51.934;15.554;2023-03-15T05:23:18;99238.46;;;-1.03;90.36
59073;BME280;44859;51.934;15.554;2023-03-15T05:25:54;99242.65;;;-1.07;90.69
59073;BME280;44859;51.934;15.554;2023-03-15T05:28:24;99250.61;;;-1.10;90.55
59073;BME280;44859;51.934;15.554;2023-03-15T05:30:59;99248.56;;;-1.13;90.50
59073;BME280;44859;51.934;15.554;2023-03-15T05:33:29;99254.95;;;-1.15;90.57
59073;BME280;44859;51.934;15.554;2023-03-15T05:36:02;99258.95;;;-1.17;90.61
59073;BME280;44859;51.934;15.554;2023-03-15T05:38:34;99263.27;;;-1.18;90.76
59073;BME280;44859;51.934;15.554;2023-03-15T05:41:02;99270.14;;;-1.17;90.96
59073;BME280;44859;51.934;15.554;2023-03-15T05:43:33;99272.73;;;-1.17;90.61
59073;BME280;44859;51.934;15.554;2023-03-15T05:46:01;99273.58;;;-1.15;90.61
59073;BME280;44859;51.934;15.554;2023-03-15T05:48:30;99281.66;;;-1.14;91.06
59073;BME280;44859;51.934;15.554;2023-03-15T05:50:59;99284.91;;;-1.12;90.74
59073;BME280;44859;51.934;15.554;2023-03-15T05:53:28;99292.64;;;-1.10;90.70
59073;BME280;44859;51.934;15.554;2023-03-15T05:56:03;99299.55;;;-1.09;90.89
59073;BME280;44859;51.934;15.554;2023-03-15T05:58:34;99303.33;;;-1.07;90.94
59073;BME280;44859;51.934;15.554;2023-03-15T06:01:04;99306.95;;;-1.09;90.57
59073;BME280;44859;51.934;15.554;2023-03-15T06:03:36;99312.10;;;-1.08;90.52
59073;BME280;44859;51.934;15.554;2023-03-15T06:06:04;99320.73;;;-1.07;90.85
59073;BME280;44859;51.934;15.554;2023-03-15T06:08:36;99318.48;;;-1.06;90.81
59073;BME280;44859;51.934;15.554;2023-03-15T06:11:04;99328.66;;;-1.07;90.75
59073;BME280;44859;51.934;15.554;2023-03-15T06:13:36;99334.69;;;-1.06;90.86
59073;BME280;44859;51.934;15.554;2023-03-15T06:16:04;99335.52;;;-1.03;91.00
59073;BME280;44859;51.934;15.554;2023-03-15T06:18:32;99338.92;;;-1.01;91.08
59073;BME280;44859;51.934;15.554;2023-03-15T06:21:01;99346.30;;;-0.97;91.04
59073;BME280;44859;51.934;15.554;2023-03-15T06:23:29;99345.92;;;-0.93;91.03
59073;BME280;44859;51.934;15.554;2023-03-15T06:26:00;99348.11;;;-0.87;90.90
59073;BME280;44859;51.934;15.554;2023-03-15T06:28:29;99356.84;;;-0.80;90.98
59073;BME280;44859;51.934;15.554;2023-03-15T06:31:07;99354.53;;;-0.73;90.73
59073;BME280;44859;51.934;15.554;2023-03-15T06:33:38;99362.17;;;-0.62;90.50
59073;BME280;44859;51.934;15.554;2023-03-15T06:36:11;99360.18;;;-0.52;90.48
59073;BME280;44859;51.934;15.554;2023-03-15T06:38:40;99363.52;;;-0.43;89.89
59073;BME280;44859;51.934;15.554;2023-03-15T06:41:09;99371.36;;;-0.32;89.45
59073;BME280;44859;51.934;15.554;2023-03-15T06:43:41;99373.67;;;-0.24;89.54
59073;BME280;44859;51.934;15.554;2023-03-15T06:46:09;99378.73;;;-0.14;89.17
59073;BME280;44859;51.934;15.554;2023-03-15T06:48:45;99382.97;;;-0.07;88.79
59073;BME280;44859;51.934;15.554;2023-03-15T06:51:14;99388.22;;;0.02;88.20
59073;BME280;44859;51.934;15.554;2023-03-15T06:53:48;99388.79;;;0.11;87.91
59073;BME280;44859;51.934;15.554;2023-03-15T06:56:17;99392.13;;;0.21;87.80
59073;BME280;44859;51.934;15.554;2023-03-15T06:58:45;99392.68;;;0.30;87.63
59073;BME280;44859;51.934;15.554;2023-03-15T07:01:20;99389.92;;;0.43;87.01
59073;BME280;44859;51.934;15.554;2023-03-15T07:03:51;99397.62;;;0.61;86.73
59073;BME280;44859;51.934;15.554;2023-03-15T07:06:20;99399.56;;;0.82;86.67
59073;BME280;44859;51.934;15.554;2023-03-15T07:08:48;99397.06;;;0.98;85.74
59073;BME280;44859;51.934;15.554;2023-03-15T07:11:20;99403.02;;;1.14;85.44
59073;BME280;44859;51.934;15.554;2023-03-15T07:13:49;99409.33;;;1.30;85.21
59073;BME280;44859;51.934;15.554;2023-03-15T07:16:17;99414.21;;;1.48;84.48
59073;BME280;44859;51.934;15.554;2023-03-15T07:18:46;99417.77;;;1.63;83.73
59073;BME280;44859;51.934;15.554;2023-03-15T07:21:15;99424.98;;;1.83;83.43
59073;BME280;44859;51.934;15.554;2023-03-15T07:23:47;99425.56;;;1.99;82.51
59073;BME280;44859;51.934;15.554;2023-03-15T07:26:18;99431.67;;;2.05;81.84
59073;BME280;44859;51.934;15.554;2023-03-15T07:28:52;99432.05;;;2.04;80.97
59073;BME280;44859;51.934;15.554;2023-03-15T07:31:22;99435.20;;;2.02;80.73
59073;BME280;44859;51.934;15.554;2023-03-15T07:33:59;99443.39;;;2.09;80.85
59073;BME280;44859;51.934;15.554;2023-03-15T07:36:27;99442.20;;;2.24;79.62
59073;BME280;44859;51.934;15.554;2023-03-15T07:38:56;99443.60;;;2.15;79.74
59073;BME280;44859;51.934;15.554;2023-03-15T07:41:24;99444.83;;;2.32;79.60
59073;BME280;44859;51.934;15.554;2023-03-15T07:43:56;99445.86;;;2.33;78.76
59073;BME280;44859;51.934;15.554;2023-03-15T07:46:26;99443.70;;;2.27;78.54
59073;BME280;44859;51.934;15.554;2023-03-15T07:48:54;99441.28;;;2.18;77.51
59073;BME280;44859;51.934;15.554;2023-03-15T07:51:26;99436.91;;;2.12;77.83
59073;BME280;44859;51.934;15.554;2023-03-15T07:53:54;99439.08;;;2.17;78.18
59073;BME280;44859;51.934;15.554;2023-03-15T07:56:23;99440.20;;;2.13;77.80
59073;BME280;44859;51.934;15.554;2023-03-15T07:58:53;99439.10;;;2.24;77.84
59073;BME280;44859;51.934;15.554;2023-03-15T08:01:22;99443.31;;;2.30;77.52
59073;BME280;44859;51.934;15.554;2023-03-15T08:03:50;99443.92;;;2.42;77.60
59073;BME280;44859;51.934;15.554;2023-03-15T08:06:20;99444.45;;;2.33;76.64
59073;BME280;44859;51.934;15.554;2023-03-15T08:08:48;99443.99;;;2.13;76.73
59073;BME280;44859;51.934;15.554;2023-03-15T08:11:16;99442.43;;;2.13;77.20
59073;BME280;44859;51.934;15.554;2023-03-15T08:13:45;99445.90;;;2.30;77.24
59073;BME280;44859;51.934;15.554;2023-03-15T08:16:13;99444.45;;;2.49;76.85
59073;BME280;44859;51.934;15.554;2023-03-15T08:18:42;99448.77;;;2.51;76.77
59073;BME280;44859;51.934;15.554;2023-03-15T08:21:10;99447.69;;;2.60;77.00
59073;BME280;44859;51.934;15.554;2023-03-15T08:23:41;99446.35;;;2.82;76.03
59073;BME280;44859;51.934;15.554;2023-03-15T08:26:10;99450.52;;;2.89;76.34
59073;BME280;44859;51.934;15.554;2023-03-15T08:28:38;99450.23;;;3.02;76.19
59073;BME280;44859;51.934;15.554;2023-03-15T08:31:07;99450.07;;;3.02;75.58
59073;BME280;44859;51.934;15.554;2023-03-15T08:33:36;99453.13;;;2.90;75.54
59073;BME280;44859;51.934;15.554;2023-03-15T08:36:05;99450.67;;;2.82;75.12
59073;BME280;44859;51.934;15.554;2023-03-15T08:38:34;99454.21;;;2.71;74.82
59073;BME280;44859;51.934;15.554;2023-03-15T08:41:02;99457.42;;;2.59;74.60
59073;BME280;44859;51.934;15.554;2023-03-15T08:43:30;99464.15;;;2.61;75.24
59073;BME280;44859;51.934;15.554;2023-03-15T08:46:02;99463.50;;;2.75;74.65
59073;BME280;44859;51.934;15.554;2023-03-15T08:48:30;99469.89;;;2.76;74.27
59073;BME280;44859;51.934;15.554;2023-03-15T08:51:06;99472.68;;;2.83;74.28
59073;BME280;44859;51.934;15.554;2023-03-15T08:53:39;99475.64;;;2.83;73.87
59073;BME280;44859;51.934;15.554;2023-03-15T08:56:08;99481.84;;;2.85;74.69
59073;BME280;44859;51.934;15.554;2023-03-15T08:58:37;99487.08;;;2.84;74.48
59073;BME280;44859;51.934;15.554;2023-03-15T09:01:05;99494.27;;;2.72;74.23
59073;BME280;44859;51.934;15.554;2023-03-15T09:03:33;99497.75;;;2.55;74.01
59073;BME280;44859;51.934;15.554;2023-03-15T09:06:02;99503.75;;;2.49;74.52
59073;BME280;44859;51.934;15.554;2023-03-15T09:08:36;99506.35;;;2.49;74.28
59073;BME280;44859;51.934;15.554;2023-03-15T09:11:04;99508.05;;;2.59;74.24
59073;BME280;44859;51.934;15.554;2023-03-15T09:13:33;99514.55;;;2.72;74.00
59073;BME280;44859;51.934;15.554;2023-03-15T09:16:04;99519.52;;;2.83;74.54
59073;BME280;44859;51.934;15.554;2023-03-15T09:18:32;99516.38;;;3.00;74.09
59073;BME280;44859;51.934;15.554;2023-03-15T09:21:01;99520.32;;;3.17;73.77
59073;BME280;44859;51.934;15.554;2023-03-15T09:23:55;99526.71;;;3.27;73.75
59073;BME280;44859;51.934;15.554;2023-03-15T09:26:40;99530.31;;;3.28;72.27
59073;BME280;44859;51.934;15.554;2023-03-15T09:29:09;99534.96;;;2.99;71.94
59073;BME280;44859;51.934;15.554;2023-03-15T09:31:37;99536.95;;;2.87;72.57
59073;BME280;44859;51.934;15.554;2023-03-15T09:37:09;99541.36;;;3.00;73.08
59073;BME280;44859;51.934;15.554;2023-03-15T09:39:37;99542.91;;;3.24;72.88
59073;BME280;44859;51.934;15.554;2023-03-15T09:42:17;99537.11;;;3.35;72.51
59073;BME280;44859;51.934;15.554;2023-03-15T09:44:55;99538.54;;;3.25;72.24
59073;BME280;44859;51.934;15.554;2023-03-15T09:47:52;99539.64;;;3.15;72.16
59073;BME280;44859;51.934;15.554;2023-03-15T09:50:28;99541.41;;;3.36;72.70
59073;BME280;44859;51.934;15.554;2023-03-15T09:53:28;99534.27;;;3.94;70.88
59073;BME280;44859;51.934;15.554;2023-03-15T09:56:01;99536.11;;;4.36;69.50
59073;BME280;44859;51.934;15.554;2023-03-15T09:58:33;99535.48;;;4.15;69.76
59073;BME280;44859;51.934;15.554;2023-03-15T10:01:07;99536.38;;;3.93;69.26
59073;BME280;44859;51.934;15.554;2023-03-15T10:06:25;99539.58;;;3.48;69.94
59073;BME280;44859;51.934;15.554;2023-03-15T10:08:58;99536.13;;;3.76;70.26
59073;BME280;44859;51.934;15.554;2023-03-15T10:16:56;99543.97;;;3.53;69.51
59073;BME280;44859;51.934;15.554;2023-03-15T10:24:33;99552.90;;;2.88;70.28
59073;BME280;44859;51.934;15.554;2023-03-15T10:27:31;99555.98;;;2.98;70.72
59073;BME280;44859;51.934;15.554;2023-03-15T10:32:48;99546.36;;;3.76;70.86
59073;BME280;44859;51.934;15.554;2023-03-15T10:35:28;99548.73;;;4.00;69.96
59073;BME280;44859;51.934;15.554;2023-03-15T10:37:58;99555.22;;;4.30;68.71
59073;BME280;44859;51.934;15.554;2023-03-15T10:40:53;99553.92;;;4.26;68.50
59073;BME280;44859;51.934;15.554;2023-03-15T10:43:29;99554.77;;;4.28;65.90
59073;BME280;44859;51.934;15.554;2023-03-15T10:46:12;99559.71;;;4.12;65.96
59073;BME280;44859;51.934;15.554;2023-03-15T10:48:59;99564.17;;;4.07;65.19
59073;BME280;44859;51.934;15.554;2023-03-15T10:51:41;99563.97;;;3.88;65.58
59073;BME280;44859;51.934;15.554;2023-03-15T10:54:14;99573.08;;;3.77;65.65
59073;BME280;44859;51.934;15.554;2023-03-15T10:57:02;99573.27;;;3.63;65.31
59073;BME280;44859;51.934;15.554;2023-03-15T10:59:34;99577.45;;;3.47;66.23
59073;BME280;44859;51.934;15.554;2023-03-15T11:07:28;99589.37;;;3.26;66.10
59073;BME280;44859;51.934;15.554;2023-03-15T11:10:04;99589.89;;;3.26;66.31
59073;BME280;44859;51.934;15.554;2023-03-15T11:12:34;99578.80;;;3.56;66.01
59073;BME280;44859;51.934;15.554;2023-03-15T11:15:06;99571.86;;;4.05;66.04
59073;BME280;44859;51.934;15.554;2023-03-15T11:17:44;99566.58;;;4.54;65.00
59073;BME280;44859;51.934;15.554;2023-03-15T11:20:34;99568.05;;;4.64;63.94
59073;BME280;44859;51.934;15.554;2023-03-15T11:23:17;99563.64;;;4.47;62.88
59073;BME280;44859;51.934;15.554;2023-03-15T11:25:48;99570.04;;;4.22;62.44
59073;BME280;44859;51.934;15.554;2023-03-15T11:28:19;99565.75;;;4.07;62.19
59073;BME280;44859;51.934;15.554;2023-03-15T11:30:49;99571.80;;;3.94;62.23
59073;BME280;44859;51.934;15.554;2023-03-15T11:33:36;99568.11;;;3.96;62.53
59073;BME280;44859;51.934;15.554;2023-03-15T11:36:29;99571.71;;;3.98;62.81
59073;BME280;44859;51.934;15.554;2023-03-15T11:39:01;99568.53;;;4.00;62.73
59073;BME280;44859;51.934;15.554;2023-03-15T11:41:41;99564.48;;;4.09;63.27
59073;BME280;44859;51.934;15.554;2023-03-15T11:44:36;99567.98;;;4.34;63.06
59073;BME280;44859;51.934;15.554;2023-03-15T11:47:30;99568.91;;;4.64;63.05
59073;BME280;44859;51.934;15.554;2023-03-15T11:50:01;99567.00;;;5.01;61.99
59073;BME280;44859;51.934;15.554;2023-03-15T11:52:30;99566.21;;;5.21;61.06
59073;BME280;44859;51.934;15.554;2023-03-15T11:55:00;99559.32;;;5.47;61.10
59073;BME280;44859;51.934;15.554;2023-03-15T11:57:43;99551.40;;;5.88;59.44
59073;BME280;44859;51.934;15.554;2023-03-15T12:02:58;99553.09;;;6.11;58.20
59073;BME280;44859;51.934;15.554;2023-03-15T12:05:52;99551.42;;;6.14;58.35
59073;BME280;44859;51.934;15.554;2023-03-15T12:14:04;99561.20;;;4.59;59.02
59073;BME280;44859;51.934;15.554;2023-03-15T12:16:41;99564.61;;;4.50;59.26
59073;BME280;44859;51.934;15.554;2023-03-15T12:19:15;99559.86;;;4.45;59.46
59073;BME280;44859;51.934;15.554;2023-03-15T12:21:57;99557.85;;;4.80;60.12
59073;BME280;44859;51.934;15.554;2023-03-15T12:24:28;99548.38;;;5.57;59.17
59073;BME280;44859;51.934;15.554;2023-03-15T12:27:18;99547.35;;;6.25;58.38
59073;BME280;44859;51.934;15.554;2023-03-15T12:30:19;99540.11;;;6.38;55.90
59073;BME280;44859;51.934;15.554;2023-03-15T12:32:52;99535.68;;;6.54;56.66
59073;BME280;44859;51.934;15.554;2023-03-15T12:35:27;99541.05;;;6.70;54.33
59073;BME280;44859;51.934;15.554;2023-03-15T12:38:22;99541.86;;;6.48;54.15
59073;BME280;44859;51.934;15.554;2023-03-15T12:40:55;99543.55;;;6.35;53.42
59073;BME280;44859;51.934;15.554;2023-03-15T12:49:32;99550.69;;;6.04;56.77
59073;BME280;44859;51.934;15.554;2023-03-15T12:57:29;99575.03;;;4.87;59.13
59073;BME280;44859;51.934;15.554;2023-03-15T13:00:22;99575.14;;;4.65;60.16
59073;BME280;44859;51.934;15.554;2023-03-15T13:03:22;99575.98;;;4.60;60.86
59073;BME280;44859;51.934;15.554;2023-03-15T13:12:24;99584.11;;;4.37;62.34
59073;BME280;44859;51.934;15.554;2023-03-15T13:15:05;99586.56;;;4.28;62.50
59073;BME280;44859;51.934;15.554;2023-03-15T13:20:45;99587.40;;;4.49;63.08
59073;BME280;44859;51.934;15.554;2023-03-15T13:23:19;99593.10;;;4.95;63.02
59073;BME280;44859;51.934;15.554;2023-03-15T13:28:58;99596.50;;;5.45;57.71
59073;BME280;44859;51.934;15.554;2023-03-15T13:31:28;99605.04;;;4.91;57.43
59073;BME280;44859;51.934;15.554;2023-03-15T13:34:12;99608.60;;;4.50;57.71
59073;BME280;44859;51.934;15.554;2023-03-15T13:36:47;99607.70;;;4.31;58.40
59073;BME280;44859;51.934;15.554;2023-03-15T13:39:27;99610.48;;;4.24;59.09
59073;BME280;44859;51.934;15.554;2023-03-15T13:42:02;99609.44;;;4.18;59.51
59073;BME280;44859;51.934;15.554;2023-03-15T13:44:36;99618.14;;;4.11;60.24
59073;BME280;44859;51.934;15.554;2023-03-15T13:47:05;99620.42;;;4.10;60.46
59073;BME280;44859;51.934;15.554;2023-03-15T13:49:34;99624.98;;;4.01;60.83
59073;BME280;44859;51.934;15.554;2023-03-15T13:52:06;99626.50;;;4.03;61.13
59073;BME280;44859;51.934;15.554;2023-03-15T13:54:40;99627.49;;;4.05;61.31
59073;BME280;44859;51.934;15.554;2023-03-15T13:59:46;99625.98;;;4.30;60.76
59073;BME280;44859;51.934;15.554;2023-03-15T14:02:22;99629.65;;;4.29;60.59
59073;BME280;44859;51.934;15.554;2023-03-15T14:05:07;99626.89;;;4.28;60.50
59073;BME280;44859;51.934;15.554;2023-03-15T14:07:46;99628.30;;;4.27;60.05
59073;BME280;44859;51.934;15.554;2023-03-15T14:12:54;99638.55;;;4.07;59.82
59073;BME280;44859;51.934;15.554;2023-03-15T14:15:42;99636.48;;;4.07;59.98
59073;BME280;44859;51.934;15.554;2023-03-15T14:18:21;99636.30;;;4.28;59.99
59073;BME280;44859;51.934;15.554;2023-03-15T14:20:57;99629.89;;;5.05;60.33
59073;BME280;44859;51.934;15.554;2023-03-15T14:23:28;99629.76;;;5.90;58.58
59073;BME280;44859;51.934;15.554;2023-03-15T14:26:16;99626.90;;;6.30;57.13
59073;BME280;44859;51.934;15.554;2023-03-15T14:31:49;99633.70;;;6.19;54.26
59073;BME280;44859;51.934;15.554;2023-03-15T14:34:34;99639.95;;;5.59;53.99
59073;BME280;44859;51.934;15.554;2023-03-15T14:40:18;99643.16;;;4.78;55.83
59073;BME280;44859;51.934;15.554;2023-03-15T14:43:02;99643.60;;;4.68;57.10
59073;BME280;44859;51.934;15.554;2023-03-15T14:45:35;99645.12;;;4.70;57.97
59073;BME280;44859;51.934;15.554;2023-03-15T14:48:26;99649.14;;;4.69;57.85
59073;BME280;44859;51.934;15.554;2023-03-15T14:50:56;99647.48;;;4.54;58.33
59073;BME280;44859;51.934;15.554;2023-03-15T14:53:34;99651.81;;;4.86;58.63
59073;BME280;44859;51.934;15.554;2023-03-15T14:56:06;99647.08;;;5.36;56.92
59073;BME280;44859;51.934;15.554;2023-03-15T14:58:34;99651.34;;;5.62;55.90
59073;BME280;44859;51.934;15.554;2023-03-15T15:01:03;99646.20;;;6.05;53.93
59073;BME280;44859;51.934;15.554;2023-03-15T15:03:33;99649.64;;;6.28;53.94
59073;BME280;44859;51.934;15.554;2023-03-15T15:06:07;99649.59;;;6.80;53.60
59073;BME280;44859;51.934;15.554;2023-03-15T15:08:38;99650.89;;;7.12;52.40
59073;BME280;44859;51.934;15.554;2023-03-15T15:11:09;99648.88;;;6.76;50.41
59073;BME280;44859;51.934;15.554;2023-03-15T15:13:39;99653.52;;;6.31;50.43
59073;BME280;44859;51.934;15.554;2023-03-15T15:16:08;99657.85;;;6.17;51.47
59073;BME280;44859;51.934;15.554;2023-03-15T15:18:37;99656.11;;;6.27;51.64
59073;BME280;44859;51.934;15.554;2023-03-15T15:21:20;99659.70;;;6.08;51.52